Time;durP1;ratioP1;P1;durP2;ratioP2;P2;SDS_P1;SDS_P2;PMS_P1;PMS_P2;Temp;Humidity;BMP_temperature;BMP_pressure;BME280_temperature;BME280_humidity;BME280_pressure;Samples;Min_cycle;Max_cycle;Signal;HPM_P1;HPM_P2
2023/07/22 00:00:40;;;;;;;7.97;4.10;;;14.10;1.00;;;;;;5067954;28;20408;-71
2023/07/22 00:03:06;;;;;;;8.83;4.33;;;14.10;1.00;;;;;;5077104;28;20483;-71
2023/07/22 00:05:31;;;;;;;7.93;3.80;;;14.10;1.00;;;;;;5033425;28;20952;-71
2023/07/22 00:07:57;;;;;;;8.52;4.20;;;14.10;1.00;;;;;;5067796;28;20403;-71
2023/07/22 00:10:23;;;;;;;10.50;4.60;;;14.10;1.00;;;;;;5050292;28;20487;-72
2023/07/22 00:12:48;;;;;;;8.10;4.00;;;14.10;1.00;;;;;;5074624;28;20402;-71
2023/07/22 00:15:14;;;;;;;9.40;3.70;;;14.10;1.00;;;;;;5075425;28;20408;-72
2023/07/22 00:17:41;;;;;;;8.13;3.25;;;14.10;1.00;;;;;;5067516;28;20430;-72
2023/07/22 00:20:10;;;;;;;6.40;3.20;;;14.10;1.00;;;;;;5075788;28;20472;-71
2023/07/22 00:22:39;;;;;;;5.93;3.15;;;14.10;1.00;;;;;;5067726;28;20416;-72
2023/07/22 00:25:08;;;;;;;8.18;3.72;;;14.10;1.00;;;;;;5038681;28;20533;-72
2023/07/22 00:27:33;;;;;;;8.02;3.60;;;14.10;1.00;;;;;;5032334;28;20955;-72
2023/07/22 00:29:59;;;;;;;9.70;4.10;;;14.10;1.00;;;;;;5049838;28;20435;-71
2023/07/22 00:32:24;;;;;;;8.17;4.50;;;14.10;1.00;;;;;;5067176;28;20473;-72
2023/07/22 00:34:50;;;;;;;8.95;4.00;;;14.10;1.00;;;;;;5067523;28;20431;-72
2023/07/22 00:37:16;;;;;;;8.52;4.30;;;14.10;1.00;;;;;;5067468;28;20408;-72
2023/07/22 00:39:42;;;;;;;9.20;4.17;;;14.10;1.00;;;;;;5067478;28;20433;-71
2023/07/22 00:42:08;;;;;;;8.93;4.35;;;14.00;1.00;;;;;;5068063;28;20422;-72
2023/07/22 00:44:33;;;;;;;10.43;4.57;;;14.00;1.00;;;;;;5067939;28;20432;-72
2023/07/22 00:47:00;;;;;;;10.53;5.27;;;13.90;1.00;;;;;;5067351;28;20399;-72
2023/07/22 00:49:27;;;;;;;12.20;5.00;;;13.90;1.00;;;;;;5067372;28;20989;-72
2023/07/22 00:51:53;;;;;;;10.32;4.47;;;13.90;1.00;;;;;;5067155;28;20482;-72
2023/07/22 00:54:18;;;;;;;9.18;4.40;;;13.80;1.00;;;;;;5077532;28;20537;-72
2023/07/22 00:56:45;;;;;;;10.80;5.23;;;13.80;1.00;;;;;;5066798;28;20444;-71
2023/07/22 00:59:12;;;;;;;9.88;4.75;;;13.80;1.00;;;;;;5067535;28;20407;-71
2023/07/22 01:01:38;;;;;;;7.93;4.30;;;13.70;1.00;;;;;;5048722;28;20426;-71
2023/07/22 01:04:04;;;;;;;8.02;4.10;;;13.70;1.00;;;;;;5081813;28;20944;-71
2023/07/22 01:06:30;;;;;;;9.63;4.25;;;13.70;1.00;;;;;;5066279;28;20396;-72
2023/07/22 01:08:58;;;;;;;10.07;4.40;;;13.70;1.00;;;;;;5066517;28;20396;-72
2023/07/22 01:11:24;;;;;;;8.35;3.95;;;13.60;1.00;;;;;;5067380;28;20411;-71
2023/07/22 01:13:49;;;;;;;9.80;3.80;;;13.60;1.00;;;;;;5076332;28;20405;-72
2023/07/22 01:16:15;;;;;;;8.60;3.88;;;13.60;1.00;;;;;;5069872;28;20807;-72
2023/07/22 01:18:42;;;;;;;7.95;3.83;;;13.60;1.00;;;;;;5070003;28;20784;-71
2023/07/22 01:21:08;;;;;;;9.20;4.00;;;13.60;1.00;;;;;;5069513;28;20779;-71
2023/07/22 01:23:36;;;;;;;6.97;3.63;;;13.50;1.00;;;;;;5074759;28;20523;-72
2023/07/22 01:26:02;;;;;;;9.43;3.45;;;13.50;1.00;;;;;;5069538;28;20406;-72
2023/07/22 01:28:28;;;;;;;7.22;3.72;;;13.40;1.00;;;;;;5052211;28;20439;-72
2023/07/22 01:30:54;;;;;;;7.72;3.42;;;13.50;1.00;;;;;;5069644;28;20430;-72
2023/07/22 01:33:20;;;;;;;7.97;3.43;;;13.50;1.00;;;;;;5069743;28;20468;-72
2023/07/22 01:35:45;;;;;;;7.47;3.72;;;13.40;1.00;;;;;;5051431;28;20403;-72
2023/07/22 01:38:11;;;;;;;8.77;3.38;;;13.40;1.00;;;;;;5069688;28;20400;-72
2023/07/22 01:40:38;;;;;;;6.17;3.40;;;13.40;1.00;;;;;;5069500;28;20761;-72
2023/07/22 01:43:03;;;;;;;7.97;3.30;;;13.40;1.00;;;;;;5070339;28;20431;-72
2023/07/22 01:45:29;;;;;;;7.57;3.60;;;13.40;1.00;;;;;;5066457;28;20454;-72
2023/07/22 01:47:54;;;;;;;8.40;3.83;;;13.40;1.00;;;;;;5049020;28;20411;-72
2023/07/22 01:50:20;;;;;;;9.82;4.20;;;13.30;1.00;;;;;;5052609;28;20456;-72
2023/07/22 01:52:48;;;;;;;9.30;4.00;;;13.30;1.00;;;;;;5071461;28;20415;-72
2023/07/22 01:55:14;;;;;;;8.03;3.67;;;13.30;1.00;;;;;;5070390;28;20400;-71
2023/07/22 01:57:40;;;;;;;10.48;3.83;;;13.30;1.00;;;;;;5070129;28;20511;-71
2023/07/22 02:00:07;;;;;;;9.18;3.67;;;13.30;1.00;;;;;;5069824;28;20478;-71
2023/07/22 02:02:33;;;;;;;7.78;3.50;;;13.30;1.00;;;;;;5073565;28;20928;-72
2023/07/22 02:04:59;;;;;;;8.10;3.63;;;13.30;1.00;;;;;;5069997;28;20412;-72
2023/07/22 02:07:26;;;;;;;9.23;3.90;;;13.20;1.00;;;;;;5069812;28;20807;-71
2023/07/22 02:09:52;;;;;;;7.70;3.72;;;13.20;1.00;;;;;;5069684;28;20411;-71
2023/07/22 02:12:18;;;;;;;8.07;4.15;;;13.20;1.00;;;;;;5052446;28;20434;-71
2023/07/22 02:14:43;;;;;;;13.45;4.65;;;13.20;1.00;;;;;;5035292;28;20925;-72
2023/07/22 02:17:09;;;;;;;11.27;4.80;;;13.20;1.00;;;;;;5052270;28;20407;-71
2023/07/22 02:19:35;;;;;;;10.52;4.82;;;13.20;1.00;;;;;;5069286;28;20526;-71
2023/07/22 02:22:01;;;;;;;11.45;4.80;;;13.10;1.00;;;;;;5069680;28;20412;-71
2023/07/22 02:24:26;;;;;;;7.73;4.20;;;13.10;1.00;;;;;;5052260;28;20434;-72
2023/07/22 02:26:52;;;;;;;9.63;4.83;;;13.10;1.00;;;;;;5068765;28;20404;-71
2023/07/22 02:29:19;;;;;;;9.05;4.88;;;13.10;1.00;;;;;;5069881;28;20391;-72
2023/07/22 02:31:46;;;;;;;11.68;4.82;;;13.10;1.00;;;;;;5034826;28;20493;-72
2023/07/22 02:34:12;;;;;;;10.50;4.90;;;13.00;1.00;;;;;;5076042;28;20411;-71
2023/07/22 02:36:37;;;;;;;8.53;4.57;;;13.00;1.00;;;;;;5069076;28;20410;-72
2023/07/22 02:39:03;;;;;;;11.15;4.85;;;12.90;1.00;;;;;;5051648;28;20408;-72
2023/07/22 02:41:29;;;;;;;10.67;4.77;;;12.90;1.00;;;;;;5069302;28;20417;-72
2023/07/22 02:43:54;;;;;;;10.45;4.78;;;12.90;1.00;;;;;;5069723;28;20459;-71
2023/07/22 02:46:20;;;;;;;11.53;5.30;;;12.90;1.00;;;;;;5069048;28;20532;-72
2023/07/22 02:48:45;;;;;;;8.93;4.55;;;12.90;1.00;;;;;;5084855;28;20408;-72
2023/07/22 02:51:11;;;;;;;9.70;4.70;;;12.90;1.00;;;;;;5068904;28;20721;-71
2023/07/22 02:53:37;;;;;;;7.93;4.65;;;12.80;1.00;;;;;;5071916;28;20812;-72
2023/07/22 02:56:04;;;;;;;9.57;4.32;;;12.80;1.00;;;;;;5084421;28;20423;-72
2023/07/22 02:58:30;;;;;;;11.90;4.90;;;12.80;1.00;;;;;;5069115;28;20913;-72
2023/07/22 03:00:58;;;;;;;9.30;4.38;;;12.80;1.00;;;;;;5084377;28;20500;-72
2023/07/22 03:03:24;;;;;;;10.02;4.90;;;12.70;1.00;;;;;;5068743;28;20532;-72
2023/07/22 03:05:49;;;;;;;9.50;5.03;;;12.70;1.00;;;;;;5068696;28;20932;-72
2023/07/22 03:08:17;;;;;;;11.93;4.93;;;12.70;1.00;;;;;;5050953;28;20407;-71
2023/07/22 03:10:48;;;;;;;8.48;4.35;;;12.70;1.00;;;;;;5084260;28;20541;-72
2023/07/22 03:13:16;;;;;;;11.45;4.78;;;12.60;1.00;;;;;;5072868;28;20415;-72
2023/07/22 03:15:42;;;;;;;10.17;4.70;;;12.60;1.00;;;;;;5064518;28;20488;-72
2023/07/22 03:18:09;;;;;;;10.50;4.18;;;12.60;1.00;;;;;;5068478;28;20426;-72
2023/07/22 03:20:38;;;;;;;10.85;4.35;;;12.60;1.00;;;;;;5067865;28;20932;-72
2023/07/22 03:23:07;;;;;;;8.00;4.35;;;12.60;1.00;;;;;;5069728;28;20431;-72
2023/07/22 03:25:33;;;;;;;10.03;4.40;;;12.60;1.00;;;;;;5068677;28;20408;-72
2023/07/22 03:28:05;;;;;;;8.82;4.80;;;12.60;1.00;;;;;;5083611;28;20413;-71
2023/07/22 03:30:30;;;;;;;9.70;4.75;;;12.50;1.00;;;;;;5068073;28;20773;-72
2023/07/22 03:32:57;;;;;;;11.10;4.50;;;12.50;1.00;;;;;;5068165;28;20411;-72
2023/07/22 03:35:22;;;;;;;10.35;4.00;;;12.50;1.00;;;;;;5067678;28;20410;-71
2023/07/22 03:37:48;;;;;;;8.07;3.93;;;12.50;1.00;;;;;;5049994;28;20407;-71
2023/07/22 03:40:19;;;;;;;10.23;4.03;;;12.50;1.00;;;;;;5068226;28;20478;-71
2023/07/22 03:42:52;;;;;;;10.43;4.57;;;12.50;1.00;;;;;;5050532;28;20510;-71
2023/07/22 03:45:21;;;;;;;8.25;4.15;;;12.50;1.00;;;;;;5083924;28;20408;-71
2023/07/22 03:47:50;;;;;;;8.25;3.85;;;12.50;1.00;;;;;;5085928;28;20407;-71
2023/07/22 03:50:15;;;;;;;9.75;3.92;;;12.50;1.00;;;;;;5069267;28;20400;-71
2023/07/22 03:52:41;;;;;;;8.50;4.00;;;12.50;1.00;;;;;;5053303;28;21121;-71
2023/07/22 03:55:07;;;;;;;9.85;4.47;;;12.50;1.00;;;;;;5067892;28;20403;-71
2023/07/22 03:57:33;;;;;;;8.90;4.47;;;12.50;1.00;;;;;;5067879;28;20478;-72
2023/07/22 03:59:58;;;;;;;9.90;4.17;;;12.50;1.00;;;;;;5068138;28;20400;-72
2023/07/22 04:02:24;;;;;;;8.23;3.85;;;12.50;1.00;;;;;;5067345;28;20526;-72
2023/07/22 04:04:51;;;;;;;7.85;3.85;;;12.50;1.00;;;;;;5067841;28;20984;-71
2023/07/22 04:07:17;;;;;;;8.80;4.10;;;12.60;1.00;;;;;;5067699;28;20923;-72
2023/07/22 04:09:44;;;;;;;9.98;4.32;;;12.60;1.00;;;;;;5072646;28;20410;-71
2023/07/22 04:12:10;;;;;;;10.07;4.00;;;12.70;1.00;;;;;;5071129;28;20417;-72
2023/07/22 04:14:36;;;;;;;10.98;4.30;;;12.70;1.00;;;;;;5067255;28;20429;-72
2023/07/22 04:17:04;;;;;;;9.57;4.30;;;12.70;1.00;;;;;;5067095;28;20483;-72
2023/07/22 04:19:29;;;;;;;8.18;3.70;;;12.80;1.00;;;;;;5067404;28;21230;-71
2023/07/22 04:21:55;;;;;;;8.50;4.10;;;12.80;1.00;;;;;;5052752;28;20399;-72
2023/07/22 04:24:20;;;;;;;9.45;3.70;;;12.90;1.00;;;;;;5067533;28;20433;-72
2023/07/22 04:26:46;;;;;;;7.83;3.77;;;13.00;1.00;;;;;;5066546;28;20403;-72
2023/07/22 04:29:12;;;;;;;7.88;3.80;;;13.00;1.00;;;;;;5067555;28;20403;-72
2023/07/22 04:31:38;;;;;;;7.50;3.63;;;13.10;1.00;;;;;;5067504;28;21628;-72
2023/07/22 04:34:05;;;;;;;8.10;4.03;;;13.10;1.00;;;;;;5067672;28;20448;-72
2023/07/22 04:36:31;;;;;;;10.95;4.10;;;13.20;1.00;;;;;;5066848;28;20411;-73
2023/07/22 04:38:57;;;;;;;8.15;4.18;;;13.20;1.00;;;;;;5067221;28;20396;-74
2023/07/22 04:41:22;;;;;;;9.10;3.95;;;13.30;1.00;;;;;;5067116;28;20420;-71
2023/07/22 04:43:50;;;;;;;8.27;3.73;;;13.30;1.00;;;;;;5067366;28;20820;-71
2023/07/22 04:46:16;;;;;;;8.65;3.88;;;13.30;1.00;;;;;;5069739;28;20917;-73
2023/07/22 04:48:41;;;;;;;9.30;4.07;;;13.40;1.00;;;;;;5071274;28;20403;-71
2023/07/22 04:51:07;;;;;;;11.33;4.30;;;13.30;1.00;;;;;;5070526;28;20411;-72
2023/07/22 04:53:33;;;;;;;7.70;3.70;;;13.40;1.00;;;;;;5072514;28;20830;-72
2023/07/22 04:55:59;;;;;;;9.43;3.97;;;13.50;1.00;;;;;;5070868;28;20412;-72
2023/07/22 04:58:24;;;;;;;9.13;4.80;;;13.50;1.00;;;;;;5070888;28;20396;-72
2023/07/22 05:00:50;;;;;;;8.10;3.58;;;13.70;1.00;;;;;;5070528;28;20409;-72
2023/07/22 05:03:16;;;;;;;7.35;3.80;;;13.80;1.00;;;;;;5072165;28;20458;-72
2023/07/22 05:05:42;;;;;;;8.57;4.00;;;13.80;1.00;;;;;;5055045;28;20473;-72
2023/07/22 05:08:08;;;;;;;10.40;3.70;;;13.90;1.00;;;;;;5070551;28;20400;-72
2023/07/22 05:10:34;;;;;;;8.20;3.83;;;14.00;1.00;;;;;;5070643;28;20456;-72
2023/07/22 05:12:59;;;;;;;9.93;4.00;;;14.00;1.00;;;;;;5072103;28;20411;-72
2023/07/22 05:15:25;;;;;;;8.55;3.97;;;14.10;1.00;;;;;;5082837;28;20418;-71
2023/07/22 05:17:51;;;;;;;8.10;4.03;;;14.10;1.00;;;;;;5070738;28;20406;-72
2023/07/22 05:20:17;;;;;;;7.45;3.92;;;14.10;1.00;;;;;;5070790;28;20905;-71
2023/07/22 05:22:42;;;;;;;7.30;3.35;;;14.10;1.00;;;;;;5072398;28;20820;-71
2023/07/22 05:25:09;;;;;;;8.52;3.28;;;14.10;1.00;;;;;;5035461;28;20994;-71
2023/07/22 05:27:35;;;;;;;7.88;2.95;;;14.20;1.00;;;;;;5070363;28;20932;-72
2023/07/22 05:30:01;;;;;;;8.63;3.30;;;14.20;1.00;;;;;;5070285;28;20473;-72
2023/07/22 05:32:29;;;;;;;7.70;3.17;;;14.10;1.00;;;;;;5075622;28;20407;-72
2023/07/22 05:34:56;;;;;;;7.35;3.10;;;14.20;1.00;;;;;;5051879;28;20499;-72
2023/07/22 05:37:22;;;;;;;7.47;3.45;;;14.20;1.00;;;;;;5071244;28;20415;-72
2023/07/22 05:39:48;;;;;;;9.30;3.47;;;14.20;1.00;;;;;;5070029;28;20404;-72
2023/07/22 05:42:13;;;;;;;7.20;3.67;;;14.20;1.00;;;;;;5069616;28;20396;-71
2023/07/22 05:44:39;;;;;;;8.15;3.33;;;14.20;1.00;;;;;;5070229;28;20905;-71
2023/07/22 05:47:05;;;;;;;7.40;3.13;;;14.20;1.00;;;;;;5054540;28;20408;-71
2023/07/22 05:49:30;;;;;;;8.10;3.05;;;14.20;1.00;;;;;;5093516;28;20435;-72
2023/07/22 05:51:56;;;;;;;8.07;3.40;;;14.20;1.00;;;;;;5070438;28;20402;-72
2023/07/22 05:54:22;;;;;;;7.82;3.15;;;14.30;1.00;;;;;;5070317;28;20419;-72
2023/07/22 05:56:47;;;;;;;9.80;3.23;;;14.30;1.00;;;;;;5073743;28;20410;-72
2023/07/22 05:59:13;;;;;;;8.90;3.70;;;14.40;1.00;;;;;;5076211;28;20765;-72
2023/07/22 06:01:38;;;;;;;7.40;3.58;;;14.50;1.00;;;;;;5069987;28;20403;-72
2023/07/22 06:04:04;;;;;;;6.63;4.00;;;14.50;1.00;;;;;;5051373;28;20485;-72
2023/07/22 06:06:31;;;;;;;6.75;3.42;;;14.60;1.00;;;;;;5069944;28;20765;-72
2023/07/22 06:08:56;;;;;;;9.50;4.18;;;14.60;1.00;;;;;;5071320;28;20447;-72
2023/07/22 06:11:22;;;;;;;9.70;4.13;;;14.70;1.00;;;;;;5070000;28;20423;-72
2023/07/22 06:13:47;;;;;;;7.18;4.03;;;14.80;1.00;;;;;;5071464;28;20883;-72
2023/07/22 06:16:13;;;;;;;11.53;4.47;;;14.90;1.00;;;;;;5061111;28;20408;-72
2023/07/22 06:18:39;;;;;;;9.10;4.20;;;15.00;1.00;;;;;;5069299;28;20479;-72
2023/07/22 06:21:05;;;;;;;8.70;4.75;;;15.00;1.00;;;;;;5069781;28;20990;-72
2023/07/22 06:23:31;;;;;;;8.77;4.30;;;15.10;1.00;;;;;;5069454;28;20431;-73
2023/07/22 06:25:57;;;;;;;9.77;4.77;;;15.10;1.00;;;;;;5069181;28;20456;-72
2023/07/22 06:28:22;;;;;;;7.60;4.32;;;15.20;1.00;;;;;;5069687;28;20519;-71
2023/07/22 06:30:48;;;;;;;7.73;4.43;;;15.30;1.00;;;;;;5051491;28;20780;-72
2023/07/22 06:33:13;;;;;;;8.20;4.33;;;15.40;1.00;;;;;;5071912;28;20400;-71
2023/07/22 06:35:39;;;;;;;8.25;4.53;;;15.50;1.00;;;;;;5051847;28;20914;-72
2023/07/22 06:38:05;;;;;;;10.23;4.80;;;15.50;1.00;;;;;;5070563;28;20468;-71
2023/07/22 06:40:30;;;;;;;9.60;5.35;;;15.60;1.00;;;;;;5074693;28;20423;-70
2023/07/22 06:42:56;;;;;;;9.43;4.97;;;15.60;1.00;;;;;;5068724;28;20432;-70
2023/07/22 06:45:21;;;;;;;9.33;5.30;;;15.70;1.00;;;;;;5069450;28;20784;-71
2023/07/22 06:47:47;;;;;;;11.10;5.43;;;15.70;1.00;;;;;;5069149;28;20891;-71
2023/07/22 06:50:13;;;;;;;10.23;5.60;;;15.80;1.00;;;;;;5070073;28;20399;-71
2023/07/22 06:52:38;;;;;;;7.50;5.13;;;15.80;1.00;;;;;;5052152;28;20445;-72
2023/07/22 06:55:05;;;;;;;10.63;5.50;;;15.90;1.00;;;;;;5054125;28;20498;-72
2023/07/22 06:57:30;;;;;;;9.65;5.57;;;16.10;1.00;;;;;;5070111;28;20400;-72
2023/07/22 06:59:56;;;;;;;10.60;5.28;;;16.20;1.00;;;;;;5068302;28;20404;-72
2023/07/22 07:02:22;;;;;;;9.23;5.22;;;16.30;1.00;;;;;;5048826;28;20422;-73
2023/07/22 07:04:49;;;;;;;9.70;5.55;;;16.40;1.00;;;;;;5067140;28;20415;-73
2023/07/22 07:07:16;;;;;;;9.85;5.43;;;16.50;1.00;;;;;;5065223;28;20411;-73
2023/07/22 07:09:41;;;;;;;8.33;5.70;;;16.50;1.00;;;;;;5066334;28;20400;-73
2023/07/22 07:12:08;;;;;;;9.18;5.78;;;16.50;1.00;;;;;;5067008;28;20754;-73
2023/07/22 07:14:34;;;;;;;9.32;5.78;;;16.60;1.00;;;;;;5067169;28;20750;-73
2023/07/22 07:17:00;;;;;;;10.05;6.28;;;16.70;1.00;;;;;;5066662;28;20419;-73
2023/07/22 07:19:26;;;;;;;10.77;6.03;;;16.90;1.00;;;;;;5077150;28;21313;-73
2023/07/22 07:21:52;;;;;;;8.88;5.68;;;17.00;1.00;;;;;;5070751;28;20489;-72
2023/07/22 07:24:18;;;;;;;11.05;6.18;;;17.00;1.00;;;;;;5066445;28;20471;-72
2023/07/22 07:26:44;;;;;;;10.27;6.23;;;17.10;1.00;;;;;;5067364;28;20400;-73
2023/07/22 07:29:10;;;;;;;12.50;6.55;;;17.20;1.00;;;;;;5080012;28;20416;-72
2023/07/22 07:31:36;;;;;;;8.90;5.93;;;17.30;1.00;;;;;;5067308;28;20439;-72
2023/07/22 07:34:02;;;;;;;11.93;6.80;;;17.30;99.90;;;;;;5067272;28;20448;-72
2023/07/22 07:36:28;;;;;;;10.93;6.80;;;17.40;99.90;;;;;;5066807;28;20773;-72
2023/07/22 07:38:53;;;;;;;10.15;5.80;;;17.50;99.90;;;;;;5067034;28;20396;-72
2023/07/22 07:41:19;;;;;;;10.60;7.27;;;17.50;99.90;;;;;;5066802;28;20483;-72
2023/07/22 07:43:45;;;;;;;10.85;6.65;;;17.50;99.90;;;;;;5063903;28;20777;-72
2023/07/22 07:46:17;;;;;;;9.30;6.53;;;17.50;99.90;;;;;;5049324;28;20936;-71
2023/07/22 07:48:54;;;;;;;8.77;6.30;;;17.50;99.90;;;;;;5062988;28;20439;-71
2023/07/22 07:51:21;;;;;;;11.55;6.32;;;17.60;99.90;;;;;;5066612;28;20877;-71
2023/07/22 07:53:48;;;;;;;11.52;6.85;;;17.60;99.90;;;;;;5082382;28;20910;-72
2023/07/22 07:56:14;;;;;;;9.85;6.10;;;17.70;99.90;;;;;;5048664;28;20935;-72
2023/07/22 07:58:40;;;;;;;11.25;6.45;;;17.70;99.90;;;;;;5066936;28;20757;-72
2023/07/22 08:01:06;;;;;;;12.60;6.73;;;17.80;99.90;;;;;;5061588;28;20418;-72
2023/07/22 08:03:34;;;;;;;10.02;6.47;;;17.90;99.90;;;;;;5062718;28;20432;-72
2023/07/22 08:06:00;;;;;;;10.65;6.30;;;17.90;99.90;;;;;;5049067;28;20928;-73
2023/07/22 08:08:26;;;;;;;10.63;6.75;;;18.00;99.90;;;;;;5067127;28;20909;-72
2023/07/22 08:11:15;;;;;;;12.53;7.43;;;18.00;99.90;;;;;;5047854;28;20414;-72
2023/07/22 08:13:42;;;;;;;10.40;6.88;;;18.10;99.90;;;;;;5048405;28;20494;-71
2023/07/22 08:16:09;;;;;;;10.95;6.47;;;18.10;99.90;;;;;;5055648;28;20818;-72
2023/07/22 08:18:36;;;;;;;9.07;6.38;;;18.20;99.90;;;;;;5074385;28;20433;-72
2023/07/22 08:21:03;;;;;;;12.13;7.00;;;18.20;99.90;;;;;;5067426;28;20419;-72
2023/07/22 08:23:28;;;;;;;10.90;6.93;;;18.30;99.90;;;;;;5067217;28;20431;-72
2023/07/22 08:25:54;;;;;;;12.33;6.90;;;18.50;99.90;;;;;;5050807;28;20757;-72
2023/07/22 08:28:20;;;;;;;10.80;6.88;;;18.40;99.90;;;;;;5055522;28;20411;-72
2023/07/22 08:30:47;;;;;;;12.27;7.20;;;18.30;98.70;;;;;;5067945;28;20395;-73
2023/07/22 08:33:14;;;;;;;10.18;6.88;;;18.30;99.90;;;;;;5071271;28;20437;-72
2023/07/22 08:35:40;;;;;;;9.68;7.00;;;18.40;99.90;;;;;;5088537;28;20423;-72
2023/07/22 08:38:06;;;;;;;10.73;6.97;;;18.40;99.90;;;;;;5067554;28;20412;-71
2023/07/22 08:40:38;;;;;;;12.05;7.30;;;18.60;99.90;;;;;;5072075;28;20415;-72
2023/07/22 08:43:06;;;;;;;10.97;6.77;;;18.70;99.90;;;;;;5068749;28;20821;-71
2023/07/22 08:45:37;;;;;;;9.68;6.55;;;18.80;32.90;;;;;;5087678;28;20905;-72
2023/07/22 08:48:14;;;;;;;10.20;6.43;;;18.90;1.00;;;;;;5065220;28;20483;-72
2023/07/22 08:50:52;;;;;;;10.65;6.60;;;18.90;1.00;;;;;;5063335;28;20400;-72
2023/07/22 08:53:19;;;;;;;9.88;5.85;;;19.00;1.00;;;;;;5064618;28;20495;-72
2023/07/22 08:55:45;;;;;;;10.52;6.32;;;19.00;1.00;;;;;;5067488;28;20419;-72
2023/07/22 08:58:12;;;;;;;9.40;5.97;;;19.10;1.00;;;;;;5078119;28;20457;-72
2023/07/22 09:00:39;;;;;;;8.35;5.30;;;19.10;99.90;;;;;;5067728;28;20957;-72
2023/07/22 09:03:05;;;;;;;8.45;4.95;;;19.00;99.90;;;;;;5071368;28;20764;-72
2023/07/22 09:05:33;;;;;;;8.33;5.53;;;18.90;66.50;;;;;;5068567;28;20444;-72
2023/07/22 09:07:59;;;;;;;8.85;5.25;;;18.80;22.50;;;;;;5067898;28;20474;-72
2023/07/22 09:10:27;;;;;;;8.07;5.28;;;18.80;99.90;;;;;;5067078;28;20996;-71
2023/07/22 09:12:53;;;;;;;7.72;4.72;;;18.70;99.90;;;;;;5067408;28;20438;-72
2023/07/22 09:15:19;;;;;;;7.95;5.03;;;18.70;1.00;;;;;;5068616;28;20917;-72
2023/07/22 09:17:46;;;;;;;8.05;5.20;;;18.80;1.00;;;;;;5067475;28;20404;-72
2023/07/22 09:20:14;;;;;;;9.40;5.20;;;18.90;1.00;;;;;;5069567;28;20915;-72
2023/07/22 09:22:47;;;;;;;9.75;5.65;;;18.90;99.90;;;;;;5075766;28;20905;-72
2023/07/22 09:25:26;;;;;;;8.32;4.93;;;19.00;99.90;;;;;;5066445;28;20420;-73
2023/07/22 09:28:02;;;;;;;7.18;5.00;;;19.20;99.90;;;;;;5076417;28;20923;-73
2023/07/22 09:30:36;;;;;;;8.57;4.67;;;19.40;99.90;;;;;;5060162;28;20399;-73
2023/07/22 09:33:03;;;;;;;7.30;4.50;;;19.80;99.90;;;;;;5068549;28;20407;-73
2023/07/22 09:35:31;;;;;;;7.75;4.78;;;20.10;99.90;;;;;;5070487;28;20837;-73
2023/07/22 09:37:58;;;;;;;6.20;4.10;;;20.20;99.90;;;;;;5069523;28;20459;-73
2023/07/22 09:40:27;;;;;;;6.80;3.93;;;20.10;50.90;;;;;;5062364;28;20417;-73
2023/07/22 09:43:00;;;;;;;6.23;3.70;;;19.90;99.90;;;;;;5041365;28;20469;-73
2023/07/22 09:45:29;;;;;;;4.30;2.53;;;19.70;99.90;;;;;;5057323;28;20453;-73
2023/07/22 09:47:56;;;;;;;5.28;2.97;;;19.40;1.00;;;;;;5066117;28;20438;-73
2023/07/22 09:50:23;;;;;;;5.55;3.00;;;19.10;1.00;;;;;;5062054;28;20407;-73
2023/07/22 09:52:51;;;;;;;6.68;3.35;;;19.00;99.90;;;;;;5068510;28;20415;-73
2023/07/22 09:55:28;;;;;;;4.70;3.30;;;18.80;1.00;;;;;;5069639;28;20407;-73
2023/07/22 09:57:56;;;;;;;6.50;3.67;;;18.70;1.00;;;;;;5050986;28;20979;-73
2023/07/22 10:00:25;;;;;;;5.13;2.83;;;18.60;99.90;;;;;;5078060;28;20404;-73
2023/07/22 10:02:52;;;;;;;6.32;3.00;;;18.50;99.90;;;;;;5068758;28;20411;-71
2023/07/22 10:05:19;;;;;;;5.13;2.72;;;18.40;99.90;;;;;;5053806;28;20767;-72
2023/07/22 10:07:53;;;;;;;6.90;2.87;;;18.30;99.90;;;;;;5066346;28;21317;-73
2023/07/22 10:10:22;;;;;;;5.87;2.63;;;18.30;99.90;;;;;;5068436;28;20415;-73
2023/07/22 10:12:48;;;;;;;5.43;2.92;;;18.20;99.90;;;;;;5072157;28;20480;-72
2023/07/22 10:15:15;;;;;;;6.73;3.83;;;18.20;1.00;;;;;;5056884;28;20478;-73
2023/07/22 10:17:43;;;;;;;9.43;5.33;;;18.20;1.00;;;;;;5073380;28;20407;-73
2023/07/22 10:20:15;;;;;;;9.52;5.65;;;18.10;99.90;;;;;;5069563;28;20450;-73
2023/07/22 10:22:44;;;;;;;10.30;5.65;;;18.00;1.00;;;;;;5070544;28;20427;-73
2023/07/22 10:25:20;;;;;;;10.10;5.50;;;17.90;99.90;;;;;;5066186;28;20400;-73
2023/07/22 10:27:47;;;;;;;9.07;5.70;;;17.90;99.90;;;;;;5068253;28;20415;-73
2023/07/22 10:30:14;;;;;;;9.05;5.40;;;17.80;99.90;;;;;;5069355;28;20417;-73
2023/07/22 10:32:49;;;;;;;10.40;5.68;;;17.90;99.90;;;;;;5075013;28;20419;-73
2023/07/22 10:35:30;;;;;;;9.95;5.57;;;17.90;99.90;;;;;;5069541;28;20552;-73
2023/07/22 10:37:56;;;;;;;9.60;6.15;;;17.90;99.90;;;;;;5069111;28;20408;-73
2023/07/22 10:40:24;;;;;;;9.18;6.07;;;17.90;99.90;;;;;;5069152;28;20396;-73
2023/07/22 10:42:53;;;;;;;9.35;6.40;;;17.90;99.90;;;;;;5070406;28;20435;-74
2023/07/22 10:45:43;;;;;;;8.77;6.10;;;17.90;99.90;;;;;;5051783;28;20439;-73
2023/07/22 10:48:12;;;;;;;11.77;7.10;;;17.90;99.90;;;;;;5077768;28;20408;-74
2023/07/22 10:50:48;;;;;;;10.10;6.75;;;17.90;99.90;;;;;;5069702;28;20813;-73
2023/07/22 10:53:39;;;;;;;11.07;6.80;;;17.90;99.90;;;;;;5071716;28;20408;-73
2023/07/22 10:56:24;;;;;;;10.60;7.38;;;18.00;99.90;;;;;;5052702;28;20423;-73
2023/07/22 10:58:50;;;;;;;9.70;6.35;;;18.00;99.90;;;;;;5068848;28;20412;-73
2023/07/22 11:01:30;;;;;;;10.35;6.60;;;18.00;99.90;;;;;;5054231;28;20821;-73
2023/07/22 11:04:17;;;;;;;9.57;6.55;;;17.90;99.90;;;;;;5074730;28;20432;-73
2023/07/22 11:06:48;;;;;;;10.98;7.22;;;17.90;99.90;;;;;;5071438;28;20424;-73
2023/07/22 11:09:34;;;;;;;11.68;7.40;;;17.90;1.00;;;;;;5078369;28;20424;-74
2023/07/22 11:12:10;;;;;;;13.32;7.75;;;17.90;1.00;;;;;;5047985;28;20503;-74
2023/07/22 11:15:01;;;;;;;13.10;8.27;;;17.90;1.00;;;;;;5074858;28;20471;-73
2023/07/22 11:17:31;;;;;;;12.95;8.45;;;17.90;1.00;;;;;;5070644;28;20414;-73
2023/07/22 11:19:59;;;;;;;12.87;7.50;;;17.90;1.00;;;;;;5074225;28;20418;-72
2023/07/22 11:22:24;;;;;;;10.98;7.15;;;17.80;1.00;;;;;;5068626;28;20465;-73
2023/07/22 11:24:50;;;;;;;12.17;7.53;;;17.80;1.00;;;;;;5079544;28;20403;-73
2023/07/22 11:27:16;;;;;;;12.20;7.30;;;17.90;1.00;;;;;;5071454;28;20412;-73
2023/07/22 11:29:41;;;;;;;10.88;6.75;;;17.80;1.00;;;;;;5074829;28;20404;-73
2023/07/22 11:32:16;;;;;;;9.10;5.90;;;17.80;1.00;;;;;;5050728;28;20849;-73
2023/07/22 11:34:44;;;;;;;8.48;5.68;;;17.80;1.00;;;;;;5065065;28;20428;-73
2023/07/22 11:37:10;;;;;;;9.55;6.00;;;17.70;1.00;;;;;;5076344;28;20435;-73
2023/07/22 11:39:36;;;;;;;10.23;6.10;;;17.60;1.00;;;;;;5068004;28;20482;-73
2023/07/22 11:42:04;;;;;;;9.95;6.30;;;17.60;1.00;;;;;;5068207;28;20411;-73
2023/07/22 11:44:30;;;;;;;10.05;6.10;;;17.50;1.00;;;;;;5071098;28;20548;-73
2023/07/22 11:46:58;;;;;;;9.68;6.53;;;17.50;1.00;;;;;;5075590;28;20475;-73
2023/07/22 11:49:25;;;;;;;8.47;6.20;;;17.50;1.00;;;;;;5063451;28;20449;-72
2023/07/22 11:51:53;;;;;;;11.20;6.70;;;17.50;1.00;;;;;;5067689;28;20412;-74
2023/07/22 11:54:21;;;;;;;12.30;6.85;;;17.50;1.00;;;;;;5071330;28;20398;-74
2023/07/22 11:56:47;;;;;;;10.70;6.65;;;17.50;1.00;;;;;;5067567;28;20396;-73
2023/07/22 11:59:12;;;;;;;10.00;6.93;;;17.50;1.00;;;;;;5070049;28;20761;-73
2023/07/22 12:01:38;;;;;;;11.93;7.23;;;17.50;1.00;;;;;;5075469;28;20408;-73
2023/07/22 12:04:13;;;;;;;10.18;6.57;;;17.50;1.00;;;;;;5077674;28;20450;-73
2023/07/22 12:06:40;;;;;;;9.85;6.93;;;17.50;1.00;;;;;;5065140;28;20420;-73
2023/07/22 12:09:08;;;;;;;11.87;7.20;;;17.60;1.00;;;;;;5050054;28;20494;-73
2023/07/22 12:11:34;;;;;;;10.02;6.80;;;17.60;1.00;;;;;;5048751;28;20407;-73
2023/07/22 12:14:13;;;;;;;11.07;6.60;;;17.60;1.00;;;;;;5066124;28;20522;-72
2023/07/22 12:16:41;;;;;;;10.27;6.95;;;17.60;1.00;;;;;;5066257;28;20793;-72
2023/07/22 12:19:08;;;;;;;9.70;7.15;;;17.60;1.00;;;;;;5065624;28;20445;-72
2023/07/22 12:21:33;;;;;;;10.57;7.43;;;17.60;1.00;;;;;;5065724;28;20917;-73
2023/07/22 12:24:00;;;;;;;11.30;7.93;;;17.70;1.00;;;;;;5066351;28;20429;-72
2023/07/22 12:26:25;;;;;;;11.95;7.45;;;17.70;1.00;;;;;;5059542;28;20401;-72
2023/07/22 12:28:51;;;;;;;10.10;7.25;;;17.80;1.00;;;;;;5066730;28;20799;-73
2023/07/22 12:31:17;;;;;;;9.70;7.53;;;17.80;1.00;;;;;;5069623;28;20402;-72
2023/07/22 12:33:42;;;;;;;11.37;8.23;;;17.70;1.00;;;;;;5065302;28;20980;-72
2023/07/22 12:36:08;;;;;;;11.33;7.80;;;17.70;1.00;;;;;;5065997;28;20415;-72
2023/07/22 12:38:34;;;;;;;11.13;7.90;;;17.70;1.00;;;;;;5058708;28;20406;-72
2023/07/22 12:41:00;;;;;;;12.00;8.60;;;17.70;1.00;;;;;;5068115;28;20404;-72
2023/07/22 12:43:26;;;;;;;11.70;8.43;;;17.70;1.00;;;;;;5076078;28;20430;-72
2023/07/22 12:45:52;;;;;;;11.83;9.20;;;17.60;1.00;;;;;;5066829;28;20408;-72
2023/07/22 12:48:17;;;;;;;11.90;9.00;;;17.60;1.00;;;;;;5058807;28;20413;-71
2023/07/22 12:50:44;;;;;;;12.25;9.63;;;17.50;1.00;;;;;;5062913;28;20483;-72